Time,TemperatureF,DewpointF,PressureIn,WindDirection,WindDirectionDegrees,WindSpeedMPH,WindSpeedGustMPH,Humidity,HourlyPrecipIn,Conditions,Clouds,dailyrainin,SoftwareType,DateUTC
2013-07-28 00:02:00,77.0,72.0,29.96,SE,137,0.0,0.0,86,0.00,,,0.00,,2013-07-28 04:02:00,
2013-07-28 00:12:00,77.0,72.0,29.96,SE,137,0.0,0.0,86,0.00,,,0.00,,2013-07-28 04:12:00,
2013-07-28 00:22:00,77.0,72.0,29.96,SE,137,0.0,0.0,86,0.00,,,0.00,,2013-07-28 04:22:00,
2013-07-28 00:32:00,77.0,73.0,29.96,SE,137,0.0,0.0,87,0.00,,,0.00,,2013-07-28 04:32:00,
2013-07-28 00:53:00,77.0,73.0,29.96,SE,138,0.0,0.0,87,0.00,,,0.00,,2013-07-28 04:53:00,
2013-07-28 01:02:00,76.0,72.0,29.96,SE,138,0.0,0.0,88,0.00,,,0.00,,2013-07-28 05:02:00,
2013-07-28 01:12:00,76.0,72.0,29.96,SE,138,0.0,0.0,88,0.00,,,0.00,,2013-07-28 05:12:00,
2013-07-28 01:22:00,76.0,72.0,29.96,SE,138,0.0,0.0,88,0.00,,,0.00,,2013-07-28 05:22:00,
2013-07-28 01:32:00,76.0,73.0,29.95,SE,138,0.0,0.0,89,0.00,,,0.00,,2013-07-28 05:32:00,
2013-07-28 01:43:00,76.0,73.0,29.96,SE,138,0.0,0.0,89,0.00,,,0.00,,2013-07-28 05:43:00,
2013-07-28 01:52:00,76.0,73.0,29.95,SE,138,0.0,0.0,89,0.00,,,0.00,,2013-07-28 05:52:00,
2013-07-28 02:02:00,76.0,73.0,29.95,SE,138,0.0,0.0,89,0.00,,,0.00,,2013-07-28 06:02:00,
2013-07-28 02:12:00,76.0,73.0,29.94,SE,135,0.0,0.0,90,0.00,,,0.00,,2013-07-28 06:12:00,
2013-07-28 02:22:00,76.0,73.0,29.94,SE,135,0.0,0.0,90,0.00,,,0.00,,2013-07-28 06:22:00,
2013-07-28 02:32:00,76.0,73.0,29.94,SE,135,0.0,0.0,91,0.00,,,0.00,,2013-07-28 06:32:00,
2013-07-28 02:43:00,76.0,73.0,29.94,SE,135,0.0,0.0,91,0.00,,,0.00,,2013-07-28 06:43:00,
2013-07-28 02:52:00,76.0,73.0,29.93,SE,135,0.0,0.0,91,0.00,,,0.00,,2013-07-28 06:52:00,
2013-07-28 03:02:00,75.0,72.0,29.93,SE,135,0.0,0.0,91,0.00,,,0.00,,2013-07-28 07:02:00,
2013-07-28 03:12:00,75.0,72.0,29.93,SE,135,0.0,0.0,91,0.00,,,0.00,,2013-07-28 07:12:00,
2013-07-28 03:23:00,75.0,72.0,29.93,SE,135,0.0,0.0,91,0.00,,,0.00,,2013-07-28 07:23:00,
2013-07-28 03:32:00,75.0,72.0,29.93,SE,135,0.0,0.0,91,0.00,,,0.00,,2013-07-28 07:32:00,
2013-07-28 03:53:00,75.0,72.0,29.93,SE,135,0.0,0.0,91,0.00,,,0.00,,2013-07-28 07:53:00,
2013-07-28 04:02:00,75.0,73.0,29.93,SE,135,0.0,0.0,92,0.00,,,0.00,,2013-07-28 08:02:00,
2013-07-28 04:12:00,75.0,73.0,29.92,SE,135,0.0,0.0,92,0.00,,,0.00,,2013-07-28 08:12:00,
2013-07-28 04:22:00,75.0,73.0,29.93,SE,135,0.0,0.0,92,0.00,,,0.00,,2013-07-28 08:22:00,
2013-07-28 04:33:00,75.0,73.0,29.92,SE,135,0.0,0.0,92,0.00,,,0.00,,2013-07-28 08:33:00,
2013-07-28 04:42:00,75.0,73.0,29.92,SE,135,0.0,0.0,92,0.00,,,0.00,,2013-07-28 08:42:00,
2013-07-28 04:53:00,74.0,72.0,29.92,SE,135,0.0,0.0,92,0.00,,,0.00,,2013-07-28 08:53:00,
2013-07-28 05:02:00,74.0,72.0,29.93,SE,135,0.0,0.0,92,0.00,,,0.00,,2013-07-28 09:02:00,
2013-07-28 05:12:00,74.0,72.0,29.92,SE,135,0.0,0.0,92,0.00,,,0.00,,2013-07-28 09:12:00,
2013-07-28 05:22:00,74.0,72.0,29.92,SE,135,0.0,0.0,92,0.00,,,0.00,,2013-07-28 09:22:00,
2013-07-28 05:32:00,74.0,72.0,29.93,SE,135,0.0,0.0,92,0.00,,,0.00,,2013-07-28 09:32:00,
2013-07-28 05:43:00,74.0,72.0,29.93,SE,135,0.0,0.0,93,0.00,,,0.00,,2013-07-28 09:43:00,
2013-07-28 05:53:00,74.0,72.0,29.93,SE,135,0.0,0.0,93,0.00,,,0.00,,2013-07-28 09:53:00,
2013-07-28 06:02:00,74.0,72.0,29.93,SE,135,0.0,0.0,93,0.00,,,0.00,,2013-07-28 10:02:00,
2013-07-28 06:12:00,74.0,72.0,29.93,ESE,104,0.0,0.0,94,0.00,,,0.00,,2013-07-28 10:12:00,
2013-07-28 06:22:00,74.0,72.0,29.94,ESE,108,0.0,0.0,93,0.00,,,0.00,,2013-07-28 10:22:00,
2013-07-28 06:33:00,74.0,72.0,29.94,ESE,108,0.0,0.0,94,0.00,,,0.00,,2013-07-28 10:33:00,
2013-07-28 06:42:00,74.0,72.0,29.94,ESE,108,0.0,0.0,94,0.00,,,0.00,,2013-07-28 10:42:00,
2013-07-28 06:52:00,74.0,72.0,29.94,ESE,108,0.0,0.0,94,0.00,,,0.00,,2013-07-28 10:52:00,
2013-07-28 07:12:00,74.0,72.0,29.95,ESE,108,0.0,0.0,94,0.00,,,0.00,,2013-07-28 11:12:00,
2013-07-28 07:22:00,74.0,72.0,29.95,ESE,108,0.0,0.0,94,0.00,,,0.00,,2013-07-28 11:22:00,
2013-07-28 07:33:00,74.0,72.0,29.96,ESE,108,0.0,0.0,94,0.00,,,0.00,,2013-07-28 11:33:00,
2013-07-28 07:43:00,74.0,72.0,29.96,ESE,108,0.0,0.0,95,0.00,,,0.00,,2013-07-28 11:43:00,
2013-07-28 07:54:00,75.0,73.0,29.96,ESE,108,0.0,0.0,95,0.00,,,0.00,,2013-07-28 11:54:00,
2013-07-28 08:02:00,75.0,73.0,29.96,ESE,113,0.0,0.0,95,0.00,,,0.00,,2013-07-28 12:02:00,
2013-07-28 08:12:00,76.0,74.0,29.97,East,101,0.0,0.0,95,0.00,,,0.00,,2013-07-28 12:12:00,
2013-07-28 08:22:00,76.0,75.0,29.97,SE,131,0.0,0.0,96,0.00,,,0.00,,2013-07-28 12:22:00,
2013-07-28 08:33:00,77.0,75.0,29.98,SSE,150,0.0,1.0,95,0.00,,,0.00,,2013-07-28 12:33:00,
2013-07-28 08:43:00,78.0,76.0,29.98,SE,143,0.0,0.0,95,0.00,,,0.00,,2013-07-28 12:43:00,
2013-07-28 08:53:00,78.0,76.0,29.98,SSE,155,0.0,0.0,94,0.00,,,0.00,,2013-07-28 12:53:00,
2013-07-28 09:12:00,80.0,77.0,29.98,South,177,0.0,0.0,90,0.00,,,0.00,,2013-07-28 13:12:00,
2013-07-28 09:22:00,81.0,76.0,29.98,SSE,165,0.0,0.0,85,0.00,,,0.00,,2013-07-28 13:22:00,
2013-07-28 09:32:00,83.0,77.0,29.98,SE,124,0.0,0.0,83,0.00,,,0.00,,2013-07-28 13:32:00,
2013-07-28 09:43:00,83.0,75.0,29.98,SSW,200,0.0,0.0,77,0.00,,,0.00,,2013-07-28 13:43:00,
2013-07-28 09:52:00,84.0,76.0,29.98,SE,130,0.0,0.0,76,0.00,,,0.00,,2013-07-28 13:52:00,
2013-07-28 10:02:00,86.0,76.0,29.98,WSW,242,0.0,0.0,73,0.00,,,0.00,,2013-07-28 14:02:00,
2013-07-28 10:12:00,85.0,74.0,29.98,West,274,0.0,0.0,70,0.00,,,0.00,,2013-07-28 14:12:00,
2013-07-28 10:23:00,85.0,75.0,29.98,SSW,205,0.0,0.0,73,0.00,,,0.00,,2013-07-28 14:23:00,
2013-07-28 10:33:00,84.0,74.0,29.98,SW,219,0.0,0.0,71,0.00,,,0.00,,2013-07-28 14:33:00,
2013-07-28 10:53:00,85.0,74.0,29.99,NE,42,0.0,0.0,70,0.00,,,0.00,,2013-07-28 14:53:00,
2013-07-28 11:03:00,86.0,74.0,29.99,East,80,0.0,0.0,67,0.00,,,0.00,,2013-07-28 15:03:00,
2013-07-28 11:13:00,88.0,74.0,29.99,SE,129,0.0,0.0,64,0.00,,,0.00,,2013-07-28 15:13:00,
2013-07-28 11:22:00,88.0,74.0,29.99,NE,36,0.0,0.0,63,0.00,,,0.00,,2013-07-28 15:22:00,
2013-07-28 11:32:00,88.0,72.0,29.99,SE,142,0.0,0.0,60,0.00,,,0.00,,2013-07-28 15:32:00,
2013-07-28 11:43:00,87.0,76.0,29.99,SE,128,0.0,0.0,69,0.00,,,0.01,,2013-07-28 15:43:00,
2013-07-28 11:53:00,85.0,76.0,30.00,SE,135,0.0,0.0,74,0.00,,,0.01,,2013-07-28 15:53:00,
2013-07-28 12:02:00,85.0,75.0,29.99,SE,135,0.0,0.0,73,0.00,,,0.01,,2013-07-28 16:02:00,
2013-07-28 12:12:00,86.0,75.0,29.99,SE,143,0.0,0.0,69,0.00,,,0.01,,2013-07-28 16:12:00,
2013-07-28 12:22:00,87.0,75.0,30.00,South,190,0.0,0.0,67,0.00,,,0.01,,2013-07-28 16:22:00,
2013-07-28 12:33:00,87.0,76.0,30.00,North,0,1.0,3.0,71,0.00,,,0.01,,2013-07-28 16:33:00,
2013-07-28 12:43:00,88.0,74.0,30.00,SSW,202,3.0,6.0,64,0.00,,,0.01,,2013-07-28 16:43:00,
2013-07-28 13:02:00,89.0,74.0,30.00,West,279,0.0,1.0,62,0.00,,,0.01,,2013-07-28 17:02:00,
2013-07-28 13:13:00,88.0,73.0,30.00,SW,232,3.0,5.0,61,0.00,,,0.01,,2013-07-28 17:13:00,
2013-07-28 13:23:00,87.0,75.0,30.01,NW,315,5.0,9.0,67,0.00,,,0.02,,2013-07-28 17:23:00,
2013-07-28 13:32:00,84.0,75.0,30.01,WNW,301,7.0,11.0,74,0.00,,,0.15,,2013-07-28 17:32:00,
2013-07-28 14:22:00,82.0,76.0,29.98,WNW,291,2.0,3.0,83,0.00,,,0.21,,2013-07-28 18:22:00,
2013-07-28 14:33:00,85.0,77.0,29.98,NW,319,2.0,4.0,77,0.00,,,0.21,,2013-07-28 18:33:00,
2013-07-28 14:43:00,87.0,76.0,29.98,WNW,299,4.0,5.0,69,0.00,,,0.21,,2013-07-28 18:43:00,
2013-07-28 14:52:00,89.0,75.0,29.98,NW,318,3.0,6.0,64,0.00,,,0.21,,2013-07-28 18:52:00,
2013-07-28 15:02:00,89.0,75.0,29.97,WSW,252,3.0,4.0,64,0.00,,,0.21,,2013-07-28 19:02:00,
2013-07-28 15:12:00,90.0,77.0,29.98,NNW,329,4.0,7.0,66,0.00,,,0.21,,2013-07-28 19:12:00,
2013-07-28 15:22:00,91.0,76.0,29.98,North,355,2.0,4.0,62,0.00,,,0.21,,2013-07-28 19:22:00,
2013-07-28 15:33:00,91.0,75.0,29.98,WNW,296,2.0,5.0,60,0.00,,,0.21,,2013-07-28 19:33:00,
2013-07-28 15:52:00,88.0,73.0,30.00,ESE,106,9.0,13.0,61,0.00,,,0.21,,2013-07-28 19:52:00,
2013-07-28 16:02:00,83.0,73.0,30.01,East,86,13.0,18.0,72,0.00,,,0.54,,2013-07-28 20:02:00,
2013-07-28 16:13:00,78.0,73.0,30.00,ENE,77,11.0,16.0,84,0.00,,,1.09,,2013-07-28 20:13:00,
2013-07-28 17:13:00,74.0,73.0,30.00,NE,51,1.0,3.0,96,0.00,,,3.18,,2013-07-28 21:13:00,
2013-07-28 17:22:00,75.0,74.0,29.99,North,5,0.0,0.0,96,0.00,,,3.18,,2013-07-28 21:22:00,
2013-07-28 17:33:00,76.0,75.0,29.99,NW,316,0.0,0.0,96,0.00,,,3.18,,2013-07-28 21:33:00,
2013-07-28 17:44:00,76.0,75.0,29.99,NW,316,0.0,0.0,96,0.00,,,3.18,,2013-07-28 21:44:00,
2013-07-28 17:52:00,76.0,74.0,29.99,NW,316,0.0,0.0,95,0.00,,,3.18,,2013-07-28 21:52:00,
2013-07-28 18:02:00,77.0,75.0,29.99,NW,315,0.0,0.0,95,0.00,,,3.18,,2013-07-28 22:02:00,
2013-07-28 18:12:00,77.0,75.0,30.00,NE,48,0.0,0.0,95,0.00,,,3.18,,2013-07-28 22:12:00,
2013-07-28 18:22:00,77.0,75.0,29.99,NE,42,0.0,0.0,94,0.00,,,3.18,,2013-07-28 22:22:00,
2013-07-28 18:32:00,77.0,75.0,29.99,ESE,107,0.0,0.0,94,0.00,,,3.18,,2013-07-28 22:32:00,
2013-07-28 18:43:00,77.0,75.0,29.98,ESE,107,0.0,0.0,94,0.00,,,3.18,,2013-07-28 22:43:00,
2013-07-28 18:52:00,77.0,75.0,29.99,ESE,107,0.0,0.0,94,0.00,,,3.18,,2013-07-28 22:52:00,
2013-07-28 19:03:00,77.0,75.0,29.99,ESE,107,0.0,0.0,94,0.00,,,3.19,,2013-07-28 23:03:00,
2013-07-28 19:12:00,78.0,76.0,29.99,ESE,107,0.0,0.0,94,0.00,,,3.19,,2013-07-28 23:12:00,
2013-07-28 19:22:00,78.0,76.0,29.99,NNW,331,0.0,0.0,94,0.00,,,3.19,,2013-07-28 23:22:00,
2013-07-28 19:32:00,78.0,76.0,29.99,NNW,330,0.0,0.0,94,0.00,,,3.19,,2013-07-28 23:32:00,
2013-07-28 19:43:00,78.0,76.0,30.00,North,5,0.0,0.0,94,0.00,,,3.19,,2013-07-28 23:43:00,
2013-07-28 19:53:00,78.0,76.0,30.00,NNE,32,0.0,0.0,94,0.00,,,3.19,,2013-07-28 23:53:00,
2013-07-28 20:03:00,78.0,76.0,30.00,North,360,0.0,0.0,94,0.00,,,3.19,,2013-07-29 00:03:00,
2013-07-28 20:22:00,78.0,76.0,30.01,North,355,0.0,0.0,94,0.00,,,3.19,,2013-07-29 00:22:00,
2013-07-28 20:32:00,78.0,76.0,30.01,North,355,0.0,0.0,94,0.00,,,3.19,,2013-07-29 00:32:00,
2013-07-28 20:52:00,77.0,75.0,30.01,North,355,0.0,0.0,95,0.00,,,3.19,,2013-07-29 00:52:00,
2013-07-28 21:02:00,77.0,75.0,30.01,North,355,0.0,0.0,95,0.00,,,3.19,,2013-07-29 01:02:00,
2013-07-28 21:14:00,77.0,75.0,30.01,North,355,0.0,0.0,95,0.00,,,3.19,,2013-07-29 01:14:00,
2013-07-28 21:28:00,77.0,75.0,30.01,North,355,0.0,0.0,95,0.00,,,3.19,,2013-07-29 01:28:00,
2013-07-28 21:57:00,77.0,75.0,30.02,ESE,109,0.0,0.0,95,0.00,,,3.19,,2013-07-29 01:57:00,
2013-07-28 22:05:00,77.0,75.0,30.03,ESE,105,0.0,0.0,95,0.00,,,3.19,,2013-07-29 02:05:00,
2013-07-28 22:14:00,77.0,75.0,30.03,ESE,107,0.0,0.0,95,0.00,,,3.19,,2013-07-29 02:14:00,
2013-07-28 22:26:00,76.0,74.0,30.03,ESE,107,0.0,0.0,95,0.00,,,3.19,,2013-07-29 02:26:00,
2013-07-28 22:56:00,75.0,74.0,30.03,ESE,108,0.0,0.0,96,0.00,,,3.19,,2013-07-29 02:56:00,
2013-07-28 23:17:00,75.0,74.0,30.04,ESE,108,0.0,0.0,96,0.00,,,3.19,,2013-07-29 03:17:00,
2013-07-28 23:24:00,75.0,74.0,30.03,ESE,108,0.0,0.0,96,0.00,,,3.19,,2013-07-29 03:24:00,
2013-07-28 23:48:00,74.0,73.0,30.04,ESE,108,0.0,0.0,96,0.00,,,3.19,,2013-07-29 03:48:00,
2013-07-28 23:56:00,74.0,73.0,30.04,ESE,111,0.0,0.0,96,0.00,,,3.19,,2013-07-29 03:56:00,